Terminal Aerodrome Forecast
Issued by NWS

Home | Current Version | Previous Version | Text Only | Print | Product List | Glossary On
Versions: 1 2 3 4 5 6 7 8 9 10 11 12 13 14 15 16
000
FTUS43 KIND 212320
TAFHUF
TAF
KHUF 212320Z 2200/2224 04004KT P6SM FEW040
     FM220800 20007KT P6SM SCT200
     FM221300 23008KT P6SM FEW200
     FM221800 23012KT P6SM FEW050 SCT200=

USA.gov is the U.S. government's official web portal to all federal, state and local government web resources and services.